createdAt,value
2022-09-24T00:04:55.060Z,24.30
2022-09-24T00:10:02.270Z,24.30
2022-09-24T00:15:09.474Z,24.30
2022-09-24T00:20:16.706Z,24.30
2022-09-24T00:25:23.861Z,24.30
2022-09-24T00:30:31.073Z,24.30
2022-09-24T00:35:38.270Z,24.30
2022-09-24T00:40:45.577Z,24.20
2022-09-24T00:45:52.680Z,24.20
2022-09-24T00:50:59.890Z,24.20
2022-09-24T00:56:07.102Z,24.20
2022-09-24T01:01:14.397Z,24.20
2022-09-24T01:06:21.651Z,24.10
2022-09-24T01:11:28.798Z,24.10
2022-09-24T01:16:36.079Z,24.10
2022-09-24T01:21:43.252Z,24.10
2022-09-24T01:26:50.489Z,24.10
2022-09-24T01:31:58.036Z,24.10
2022-09-24T01:37:05.242Z,24.00
2022-09-24T01:42:12.442Z,24.00
2022-09-24T01:47:19.681Z,24.00
2022-09-24T01:52:26.892Z,24.00
2022-09-24T01:57:34.169Z,23.90
2022-09-24T02:02:41.403Z,23.90
2022-09-24T02:07:48.610Z,23.90
2022-09-24T02:12:55.750Z,23.90
2022-09-24T02:18:02.989Z,23.90
2022-09-24T02:23:10.219Z,23.80
2022-09-24T02:28:17.395Z,23.80
2022-09-24T02:33:24.608Z,23.80
2022-09-24T02:38:31.827Z,23.80
2022-09-24T02:43:38.986Z,23.80
2022-09-24T02:48:46.174Z,23.80
2022-09-24T02:53:53.557Z,23.70
2022-09-24T02:59:00.625Z,23.70
2022-09-24T03:04:08.015Z,23.70
2022-09-24T03:09:15.046Z,23.70
2022-09-24T03:14:22.242Z,23.70
2022-09-24T03:19:29.457Z,23.70
2022-09-24T03:24:36.672Z,23.70
2022-09-24T03:29:43.832Z,23.70
2022-09-24T03:34:51.041Z,23.70
2022-09-24T03:39:58.288Z,23.70
2022-09-24T03:45:05.455Z,23.60
2022-09-24T03:50:12.683Z,23.60
2022-09-24T03:55:19.932Z,23.60
2022-09-24T04:00:27.145Z,23.70
2022-09-24T04:05:34.374Z,23.60
2022-09-24T04:10:41.627Z,23.60
2022-09-24T04:15:48.842Z,23.60
2022-09-24T04:20:56.023Z,23.60
2022-09-24T04:26:03.241Z,23.60
2022-09-24T04:31:10.715Z,23.60
2022-09-24T04:36:17.826Z,23.60
2022-09-24T04:41:25.113Z,23.50
2022-09-24T04:46:32.285Z,23.60
2022-09-24T04:51:39.438Z,23.50
2022-09-24T04:56:46.669Z,23.60
2022-09-24T05:01:54.020Z,23.60
2022-09-24T05:07:01.051Z,23.60
2022-09-24T05:12:08.393Z,23.60
2022-09-24T05:17:15.465Z,23.60
2022-09-24T05:22:22.669Z,23.50
2022-09-24T05:27:29.856Z,23.50
2022-09-24T05:32:37.055Z,23.50
2022-09-24T05:37:44.249Z,23.50
2022-09-24T05:42:51.494Z,23.50
2022-09-24T05:47:58.588Z,23.50
2022-09-24T05:53:05.805Z,23.50
2022-09-24T05:58:13.207Z,23.50
2022-09-24T06:03:20.397Z,23.50
2022-09-24T06:08:27.523Z,23.50
2022-09-24T06:13:34.821Z,23.40
2022-09-24T06:18:42.006Z,23.40
2022-09-24T06:23:49.209Z,23.40
2022-09-24T06:29:00.738Z,23.40
2022-09-24T06:34:03.878Z,23.40
2022-09-24T06:39:11.186Z,23.40
2022-09-24T06:44:18.343Z,23.40
2022-09-24T06:49:28.002Z,23.40
2022-09-24T06:54:32.661Z,23.40
2022-09-24T06:59:39.956Z,23.40
2022-09-24T07:04:47.124Z,23.30
2022-09-24T07:09:54.370Z,23.40
2022-09-24T07:15:01.647Z,23.40
2022-09-24T07:20:08.887Z,23.40
2022-09-24T07:25:16.144Z,23.40
2022-09-24T07:30:23.659Z,23.40
2022-09-24T07:35:30.649Z,23.40
2022-09-24T07:40:37.973Z,23.40
2022-09-24T07:45:45.123Z,23.40
2022-09-24T07:50:52.347Z,23.30
2022-09-24T07:55:59.522Z,23.40
2022-09-24T08:01:06.786Z,23.30
2022-09-24T08:06:13.939Z,23.30
2022-09-24T08:11:21.493Z,23.30
2022-09-24T08:16:28.814Z,23.30
2022-09-24T08:21:36.958Z,23.30
2022-09-24T08:26:44.196Z,23.30
2022-09-24T08:31:51.414Z,23.30
2022-09-24T08:36:58.593Z,23.30
2022-09-24T08:42:05.759Z,23.30
2022-09-24T08:47:13.129Z,23.40
2022-09-24T08:52:20.419Z,23.40
2022-09-24T08:57:27.620Z,23.50
2022-09-24T09:02:35.014Z,23.50
2022-09-24T09:07:42.098Z,23.50
2022-09-24T09:12:49.235Z,23.60
2022-09-24T09:17:56.466Z,23.60
2022-09-24T09:23:03.619Z,23.60
2022-09-24T09:28:10.879Z,23.70
2022-09-24T09:33:18.022Z,23.80
2022-09-24T09:38:25.226Z,23.80
2022-09-24T09:43:32.400Z,23.90
2022-09-24T09:48:39.678Z,23.90
2022-09-24T09:53:46.805Z,24.00
2022-09-24T09:58:53.984Z,24.00
2022-09-24T10:04:01.293Z,24.10
2022-09-24T10:09:08.509Z,24.10
2022-09-24T10:14:15.702Z,24.10
2022-09-24T10:19:23.132Z,24.10
2022-09-24T10:24:30.340Z,24.20
2022-09-24T10:29:37.531Z,24.20
2022-09-24T10:34:44.740Z,24.30
2022-09-24T10:39:51.972Z,24.30
2022-09-24T10:44:59.138Z,24.30
2022-09-24T10:50:06.409Z,24.30
2022-09-24T10:55:13.633Z,24.40
2022-09-24T11:00:20.877Z,24.40
2022-09-24T11:05:28.171Z,24.40
2022-09-24T11:10:35.257Z,24.40
2022-09-24T11:15:42.524Z,24.40
2022-09-24T11:20:49.718Z,24.50
2022-09-24T11:25:56.894Z,24.50
2022-09-24T11:31:04.187Z,24.50
2022-09-24T11:36:11.410Z,24.60
2022-09-24T11:41:18.793Z,24.60
2022-09-24T11:46:26.106Z,24.60
2022-09-24T11:51:33.340Z,24.70
2022-09-24T11:56:40.571Z,24.60
2022-09-24T12:01:47.999Z,24.60
2022-09-24T12:06:55.188Z,24.60
2022-09-24T12:12:02.318Z,24.60
2022-09-24T12:17:09.532Z,24.60
2022-09-24T12:22:16.805Z,24.50
2022-09-24T12:27:24.002Z,24.50
2022-09-24T12:32:31.288Z,24.50
2022-09-24T12:37:38.587Z,24.50
2022-09-24T12:42:45.752Z,24.50
2022-09-24T12:47:52.976Z,24.50
2022-09-24T12:53:00.141Z,24.50
2022-09-24T12:58:07.981Z,24.50
2022-09-24T13:03:15.677Z,24.50
2022-09-24T13:08:22.822Z,24.50
2022-09-24T13:13:29.965Z,24.50
2022-09-24T13:18:37.176Z,24.50
2022-09-24T13:23:44.440Z,24.50
2022-09-24T13:28:51.631Z,24.40
2022-09-24T13:33:58.853Z,24.40
2022-09-24T13:39:06.145Z,24.40
2022-09-24T13:44:13.344Z,24.40
2022-09-24T13:49:20.585Z,24.40
2022-09-24T13:54:27.869Z,24.50
2022-09-24T13:59:34.977Z,24.50
2022-09-24T14:04:42.171Z,24.50
2022-09-24T14:09:49.354Z,24.60
2022-09-24T14:14:56.459Z,24.60
2022-09-24T14:20:03.995Z,24.60
2022-09-24T14:25:11.306Z,24.60
2022-09-24T14:30:18.373Z,24.60
2022-09-24T14:35:29.648Z,24.60
2022-09-24T14:40:32.851Z,24.50
2022-09-24T14:45:40.040Z,24.50
2022-09-24T14:50:47.226Z,24.50
2022-09-24T14:55:54.453Z,24.50
2022-09-24T15:01:01.635Z,24.50
2022-09-24T15:06:11.684Z,24.50
2022-09-24T15:11:18.899Z,24.50
2022-09-24T15:16:26.135Z,24.50
2022-09-24T15:21:33.302Z,24.50
2022-09-24T15:26:40.538Z,24.50
2022-09-24T15:31:47.736Z,24.60
2022-09-24T15:36:55.016Z,24.60
2022-09-24T15:42:02.242Z,24.60
2022-09-24T15:47:09.428Z,24.60
2022-09-24T15:52:16.675Z,24.60
2022-09-24T15:57:23.916Z,24.60
2022-09-24T16:02:31.226Z,24.60
2022-09-24T16:07:38.481Z,24.60
2022-09-24T16:12:45.706Z,24.60
2022-09-24T16:17:52.889Z,24.70
2022-09-24T16:23:00.089Z,24.70
2022-09-24T16:28:07.313Z,24.70
2022-09-24T16:33:14.492Z,24.80
2022-09-24T16:38:23.160Z,24.80
2022-09-24T16:43:29.199Z,24.80
2022-09-24T16:48:36.394Z,24.90
2022-09-24T16:53:48.361Z,24.90
2022-09-24T16:58:50.795Z,24.90
2022-09-24T17:03:58.026Z,24.90
2022-09-24T17:09:05.259Z,24.90
2022-09-24T17:14:12.554Z,24.80
2022-09-24T17:19:19.637Z,24.80
2022-09-24T17:24:26.861Z,24.80
2022-09-24T17:29:34.091Z,24.80
2022-09-24T17:34:45.717Z,24.80
2022-09-24T17:39:48.407Z,24.80
2022-09-24T17:44:55.668Z,24.80
2022-09-24T17:50:02.848Z,24.80
2022-09-24T17:55:10.067Z,24.80
2022-09-24T18:00:17.357Z,24.80
2022-09-24T18:05:24.562Z,24.70
2022-09-24T18:10:31.806Z,24.70
2022-09-24T18:15:39.140Z,24.70
2022-09-24T18:20:46.214Z,24.70
2022-09-24T18:25:53.405Z,24.70
2022-09-24T18:31:00.743Z,24.70
2022-09-24T18:36:07.816Z,24.60
2022-09-24T18:41:15.042Z,24.70
2022-09-24T18:46:22.337Z,24.60
2022-09-24T18:51:29.403Z,24.70
2022-09-24T18:56:36.639Z,24.70
2022-09-24T19:01:44.021Z,24.70
2022-09-24T19:06:51.875Z,24.70
2022-09-24T19:11:59.157Z,24.70
2022-09-24T19:17:06.420Z,24.80
2022-09-24T19:22:13.580Z,24.80
2022-09-24T19:27:20.763Z,24.80
2022-09-24T19:32:28.090Z,24.80
2022-09-24T19:37:35.207Z,24.80
2022-09-24T19:42:42.393Z,24.80
2022-09-24T19:47:49.721Z,24.70
2022-09-24T19:52:56.831Z,24.70
2022-09-24T19:58:04.012Z,24.80
2022-09-24T20:03:11.304Z,24.80
2022-09-24T20:08:18.430Z,24.80
2022-09-24T20:13:25.590Z,24.80
2022-09-24T20:18:32.863Z,24.80
2022-09-24T20:23:40.071Z,24.80
2022-09-24T20:28:47.281Z,24.80
2022-09-24T20:33:54.566Z,24.80
2022-09-24T20:39:01.659Z,24.80
2022-09-24T20:44:08.943Z,24.80
2022-09-24T20:49:16.152Z,24.80
2022-09-24T20:54:23.341Z,24.70
2022-09-24T20:59:30.759Z,24.70
2022-09-24T21:04:38.073Z,24.80
2022-09-24T21:09:45.144Z,24.80
2022-09-24T21:14:52.285Z,24.80
2022-09-24T21:19:59.510Z,24.80
2022-09-24T21:25:06.667Z,24.90
2022-09-24T21:30:13.894Z,24.80
2022-09-24T21:35:21.117Z,24.90
2022-09-24T21:40:28.377Z,24.90
2022-09-24T21:45:35.502Z,24.90
2022-09-24T21:50:42.725Z,24.90
2022-09-24T21:55:49.974Z,24.80
2022-09-24T22:00:57.195Z,24.80
2022-09-24T22:06:04.395Z,24.90
2022-09-24T22:11:11.563Z,24.90
2022-09-24T22:16:18.806Z,24.90
2022-09-24T22:21:25.960Z,24.90
2022-09-24T22:26:33.146Z,24.80
2022-09-24T22:31:40.365Z,24.90
2022-09-24T22:36:47.608Z,24.90
2022-09-24T22:41:54.754Z,24.90
2022-09-24T22:47:01.914Z,24.90
2022-09-24T22:52:09.187Z,24.90
2022-09-24T22:57:16.366Z,24.80
2022-09-24T23:02:23.619Z,24.90
2022-09-24T23:07:30.794Z,24.80
2022-09-24T23:12:37.955Z,24.80
2022-09-24T23:17:45.146Z,24.70
2022-09-24T23:22:52.342Z,24.70
2022-09-24T23:27:59.571Z,24.70
2022-09-24T23:33:06.734Z,24.70
2022-09-24T23:38:13.982Z,24.70
2022-09-24T23:43:21.168Z,24.70
2022-09-24T23:48:28.343Z,24.70
2022-09-24T23:53:35.653Z,24.60
2022-09-24T23:58:42.723Z,24.60
